createdAt,value
2018-02-04T00:01:14.162Z,34.40
2018-02-04T00:03:44.339Z,33.33
2018-02-04T00:06:13.761Z,36.80
2018-02-04T00:08:44.204Z,37.27
2018-02-04T00:11:14.877Z,34.33
2018-02-04T00:13:44.435Z,33.33
2018-02-04T00:16:13.730Z,36.07
2018-02-04T00:18:43.861Z,36.40
2018-02-04T00:21:14.007Z,37.97
2018-02-04T00:23:43.306Z,37.43
2018-02-04T00:26:13.685Z,34.93
2018-02-04T00:28:43.164Z,36.60
2018-02-04T00:31:12.554Z,37.53
2018-02-04T00:33:41.836Z,35.27
2018-02-04T00:36:11.983Z,35.43
2018-02-04T00:38:43.234Z,37.97
2018-02-04T00:41:12.533Z,34.53
2018-02-04T00:43:41.803Z,40.80
2018-02-04T00:46:12.309Z,42.67
2018-02-04T00:48:42.555Z,39.73
2018-02-04T00:51:12.089Z,37.40
2018-02-04T00:53:41.492Z,40.20
2018-02-04T00:56:10.846Z,39.63
2018-02-04T00:58:40.840Z,37.53
2018-02-04T01:01:10.132Z,38.43
2018-02-04T01:03:39.469Z,36.97
2018-02-04T01:06:10.892Z,42.20
2018-02-04T01:08:41.058Z,38.07
2018-02-04T01:11:10.535Z,37.77
2018-02-04T01:13:40.160Z,34.67
2018-02-04T01:16:09.791Z,34.13
2018-02-04T01:18:39.120Z,29.80
2018-02-04T01:21:08.595Z,25.73
2018-02-04T01:23:38.762Z,29.20
2018-02-04T01:26:08.339Z,26.63
2018-02-04T01:28:37.633Z,26.47
2018-02-04T01:31:07.050Z,25.07
2018-02-04T01:33:36.315Z,30.07
2018-02-04T01:36:06.370Z,30.33
2018-02-04T01:38:35.649Z,33.27
2018-02-04T01:41:06.170Z,34.63
2018-02-04T01:43:35.454Z,36.50
2018-02-04T01:46:05.494Z,37.93
2018-02-04T01:48:34.769Z,34.43
2018-02-04T01:51:04.804Z,33.10
2018-02-04T01:53:34.840Z,30.97
2018-02-04T01:56:04.104Z,28.27
2018-02-04T01:58:34.397Z,19.90
2018-02-04T02:01:03.662Z,19.30
2018-02-04T02:03:33.298Z,17.13
2018-02-04T02:06:02.578Z,13.23
2018-02-04T02:08:31.863Z,16.20
2018-02-04T02:11:00.510Z,14.10
2018-02-04T02:13:30.999Z,12.43
2018-02-04T02:16:00.276Z,14.97
2018-02-04T02:18:29.066Z,13.87
2018-02-04T02:20:58.103Z,11.77
2018-02-04T02:23:27.379Z,12.53
2018-02-04T02:25:56.426Z,15.97
2018-02-04T02:28:25.694Z,14.43
2018-02-04T02:30:54.998Z,15.70
2018-02-04T02:33:24.465Z,15.63
2018-02-04T02:35:53.753Z,13.37
2018-02-04T02:38:23.037Z,15.73
2018-02-04T02:40:53.097Z,17.53
2018-02-04T02:43:22.372Z,16.10
2018-02-04T02:45:52.275Z,15.37
2018-02-04T02:48:21.576Z,17.73
2018-02-04T02:50:51.607Z,16.77
2018-02-04T02:53:21.648Z,20.67
2018-02-04T02:55:50.988Z,22.00
2018-02-04T02:58:20.290Z,20.50
2018-02-04T03:00:49.615Z,18.43
2018-02-04T03:03:19.668Z,21.73
2018-02-04T03:05:48.984Z,19.93
2018-02-04T03:08:18.308Z,22.23
2018-02-04T03:10:47.573Z,22.80
2018-02-04T03:13:16.997Z,21.93
2018-02-04T03:15:47.204Z,21.60
2018-02-04T03:18:16.552Z,24.00
2018-02-04T03:20:46.804Z,29.07
2018-02-04T03:23:16.164Z,26.20
2018-02-04T03:25:45.532Z,25.20
2018-02-04T03:28:18.631Z,27.00
2018-02-04T03:30:47.939Z,30.90
2018-02-04T03:33:17.211Z,32.40
2018-02-04T03:35:46.475Z,33.60
2018-02-04T03:38:15.836Z,32.57
2018-02-04T03:40:45.274Z,33.57
2018-02-04T03:43:14.562Z,28.40
2018-02-04T03:45:43.832Z,32.87
2018-02-04T03:48:13.093Z,32.40
2018-02-04T03:50:43.167Z,34.13
2018-02-04T03:53:12.429Z,30.27
2018-02-04T03:55:41.681Z,27.93
2018-02-04T03:58:10.966Z,31.20
2018-02-04T04:00:40.224Z,29.97
2018-02-04T04:03:09.318Z,30.27
2018-02-04T04:05:39.357Z,25.57
2018-02-04T04:08:08.620Z,27.97
2018-02-04T04:28:06.866Z,21.17
2018-02-04T04:30:36.190Z,24.53
2018-02-04T04:33:05.480Z,21.10
2018-02-04T04:35:34.754Z,20.83
2018-02-04T04:38:04.346Z,22.20
2018-02-04T04:40:33.600Z,21.67
2018-02-04T04:43:02.162Z,19.83
2018-02-04T04:45:31.867Z,22.13
2018-02-04T04:48:01.132Z,19.00
2018-02-04T04:50:30.835Z,17.87
2018-02-04T04:53:00.855Z,18.33
2018-02-04T04:55:30.974Z,19.33
2018-02-04T04:58:01.334Z,15.67
2018-02-04T05:00:30.766Z,17.00
2018-02-04T05:03:00.133Z,16.53
2018-02-04T05:05:29.722Z,15.90
2018-02-04T05:08:00.515Z,16.17
2018-02-04T05:10:29.780Z,16.00
2018-02-04T05:12:59.222Z,18.30
2018-02-04T05:15:28.522Z,14.63
2018-02-04T05:17:57.790Z,14.23
2018-02-04T05:20:27.185Z,14.50
2018-02-04T05:22:56.450Z,13.80
2018-02-04T05:25:26.538Z,12.70
2018-02-04T05:27:55.816Z,14.73
2018-02-04T05:30:25.100Z,12.67
2018-02-04T05:32:55.085Z,13.47
2018-02-04T05:35:25.118Z,14.60
2018-02-04T05:37:54.506Z,10.90
2018-02-04T05:40:24.610Z,11.33
2018-02-04T05:42:53.870Z,8.43
2018-02-04T05:45:23.148Z,10.43
2018-02-04T05:47:53.343Z,10.33
2018-02-04T05:50:23.202Z,8.80
2018-02-04T05:52:52.634Z,7.80
2018-02-04T05:55:21.878Z,9.00
2018-02-04T05:57:52.084Z,7.53
2018-02-04T06:00:21.432Z,7.43
2018-02-04T06:02:50.984Z,8.00
2018-02-04T06:05:21.906Z,8.03
2018-02-04T06:07:51.181Z,7.47
2018-02-04T06:10:21.013Z,9.63
2018-02-04T06:12:51.439Z,8.97
2018-02-04T06:15:20.730Z,7.90
2018-02-04T06:17:50.051Z,8.37
2018-02-04T06:20:20.066Z,8.83
2018-02-04T06:22:49.535Z,8.90
2018-02-04T06:25:18.956Z,9.07
2018-02-04T06:27:48.135Z,9.50
2018-02-04T06:30:17.560Z,8.33
2018-02-04T06:32:46.799Z,7.83
2018-02-04T06:35:17.057Z,8.10
2018-02-04T06:37:46.590Z,8.77
2018-02-04T06:40:15.866Z,8.07
2018-02-04T06:42:45.215Z,7.70
2018-02-04T06:45:14.759Z,8.43
2018-02-04T06:47:44.111Z,8.70
2018-02-04T06:50:13.410Z,9.53
2018-02-04T06:52:43.948Z,8.20
2018-02-04T06:55:14.018Z,8.50
2018-02-04T06:57:44.104Z,9.43
2018-02-04T07:00:13.390Z,9.40
2018-02-04T07:02:42.642Z,9.33
2018-02-04T07:05:11.954Z,7.97
2018-02-04T07:07:41.213Z,8.17
2018-02-04T07:10:10.692Z,8.30
2018-02-04T07:12:41.016Z,7.50
2018-02-04T07:15:10.915Z,10.53
2018-02-04T07:17:40.950Z,8.50
2018-02-04T07:20:10.294Z,7.30
2018-02-04T07:22:39.571Z,5.87
2018-02-04T07:25:08.794Z,6.73
2018-02-04T07:27:39.320Z,5.50
2018-02-04T07:30:08.580Z,6.57
2018-02-04T07:32:38.014Z,5.40
2018-02-04T07:35:07.275Z,4.23
2018-02-04T07:37:37.333Z,5.60
2018-02-04T07:40:06.352Z,5.40
2018-02-04T07:42:36.120Z,5.30
2018-02-04T07:45:05.376Z,4.77
2018-02-04T07:47:34.833Z,4.57
2018-02-04T07:50:04.433Z,4.30
2018-02-04T07:52:33.884Z,4.90
2018-02-04T07:55:03.168Z,7.20
2018-02-04T07:57:32.608Z,5.80
2018-02-04T08:00:02.668Z,4.93
2018-02-04T08:02:32.906Z,4.60
2018-02-04T08:05:02.174Z,4.93
2018-02-04T08:07:31.428Z,6.53
2018-02-04T08:10:00.694Z,4.50
2018-02-04T08:12:29.966Z,5.13
2018-02-04T08:14:59.988Z,6.47
2018-02-04T08:17:29.285Z,5.07
2018-02-04T08:19:59.361Z,5.27
2018-02-04T08:22:28.764Z,5.07
2018-02-04T08:24:58.030Z,4.90
2018-02-04T08:27:27.639Z,5.07
2018-02-04T08:29:57.150Z,4.90
2018-02-04T08:32:26.414Z,5.07
2018-02-04T08:34:56.455Z,8.13
2018-02-04T08:37:25.542Z,6.03
2018-02-04T08:39:54.800Z,7.33
2018-02-04T08:42:24.071Z,5.17
2018-02-04T08:44:53.350Z,6.30
2018-02-04T08:47:22.612Z,5.80
2018-02-04T08:49:51.906Z,5.27
2018-02-04T08:52:21.176Z,6.43
2018-02-04T08:54:50.506Z,6.60
2018-02-04T08:57:19.767Z,5.47
2018-02-04T08:59:49.090Z,5.33
2018-02-04T09:02:18.352Z,5.70
2018-02-04T09:04:47.441Z,5.50
2018-02-04T09:07:18.510Z,5.77
2018-02-04T09:09:47.787Z,5.67
2018-02-04T09:12:17.814Z,6.13
2018-02-04T09:14:47.113Z,5.67
2018-02-04T09:17:16.356Z,5.40
2018-02-04T09:19:45.773Z,5.13
2018-02-04T09:22:15.229Z,5.53
2018-02-04T09:24:44.497Z,6.73
2018-02-04T09:27:14.222Z,5.90
2018-02-04T09:29:44.363Z,4.20
2018-02-04T09:32:13.705Z,4.20
2018-02-04T09:34:42.998Z,6.30
2018-02-04T09:37:12.415Z,7.07
2018-02-04T09:39:42.484Z,4.47
2018-02-04T09:42:11.791Z,4.07
2018-02-04T09:44:41.052Z,5.03
2018-02-04T09:47:11.108Z,4.33
2018-02-04T09:49:40.593Z,5.27
2018-02-04T09:52:10.017Z,4.20
2018-02-04T09:54:39.319Z,4.63
2018-02-04T09:57:08.617Z,5.80
2018-02-04T09:59:38.138Z,7.03
2018-02-04T10:02:07.616Z,4.77
2018-02-04T10:04:37.238Z,5.00
2018-02-04T10:07:06.509Z,5.20
2018-02-04T10:09:36.566Z,6.40
2018-02-04T10:12:05.840Z,4.60
2018-02-04T10:14:35.151Z,8.70
2018-02-04T10:17:03.675Z,7.20
2018-02-04T10:19:32.998Z,6.60
2018-02-04T10:22:03.068Z,7.70
2018-02-04T10:24:32.359Z,7.80
2018-02-04T10:27:01.623Z,7.00
2018-02-04T10:29:31.704Z,8.67
2018-02-04T10:32:01.006Z,9.87
2018-02-04T10:34:30.290Z,8.13
2018-02-04T10:36:59.376Z,10.80
2018-02-04T10:39:28.857Z,6.93
2018-02-04T10:41:59.624Z,7.80
2018-02-04T10:44:28.915Z,7.47
2018-02-04T10:46:58.325Z,8.13
2018-02-04T10:49:27.657Z,7.73
2018-02-04T10:52:01.226Z,8.67
2018-02-04T10:54:30.509Z,8.40
2018-02-04T10:56:59.760Z,10.07
2018-02-04T10:59:29.042Z,8.40
2018-02-04T11:01:59.447Z,9.90
2018-02-04T11:04:28.707Z,7.93
2018-02-04T11:06:58.768Z,7.43
2018-02-04T11:09:28.030Z,8.13
2018-02-04T11:11:58.189Z,9.00
2018-02-04T11:14:28.576Z,9.83
2018-02-04T11:16:58.605Z,8.80
2018-02-04T11:19:28.644Z,7.83
2018-02-04T11:21:57.931Z,10.67
2018-02-04T11:24:28.218Z,12.00
2018-02-04T11:26:57.494Z,10.77
2018-02-04T11:29:26.754Z,8.53
2018-02-04T11:31:56.948Z,10.63
2018-02-04T11:34:27.025Z,10.83
2018-02-04T11:36:56.132Z,9.70
2018-02-04T11:39:25.450Z,11.03
2018-02-04T11:41:55.850Z,9.13
2018-02-04T11:44:25.258Z,9.70
2018-02-04T11:46:55.490Z,11.30
2018-02-04T11:49:24.574Z,9.70
2018-02-04T11:51:53.663Z,9.73
2018-02-04T11:54:22.835Z,10.33
2018-02-04T11:56:52.694Z,11.40
2018-02-04T11:59:21.797Z,10.53
2018-02-04T12:01:51.116Z,12.57
2018-02-04T12:04:20.409Z,7.20
2018-02-04T12:06:49.665Z,9.37
2018-02-04T12:09:19.128Z,9.93
2018-02-04T12:11:49.188Z,10.57
2018-02-04T12:14:18.462Z,9.50
2018-02-04T12:16:48.493Z,9.77
2018-02-04T12:19:17.568Z,6.87
2018-02-04T12:21:47.749Z,10.63
2018-02-04T12:24:17.005Z,8.90
2018-02-04T12:26:46.293Z,8.73
2018-02-04T12:29:16.780Z,8.33
2018-02-04T12:31:46.831Z,8.50
2018-02-04T12:34:17.792Z,7.93
2018-02-04T12:36:47.851Z,9.50
2018-02-04T12:39:17.202Z,8.67
2018-02-04T12:41:47.315Z,7.53
2018-02-04T12:44:17.576Z,9.23
2018-02-04T12:46:47.055Z,7.90
2018-02-04T12:49:17.100Z,10.67
2018-02-04T12:51:46.182Z,9.47
2018-02-04T12:54:17.843Z,10.47
2018-02-04T12:56:47.210Z,9.37
2018-02-04T12:59:17.231Z,9.67
2018-02-04T13:01:47.503Z,11.40
2018-02-04T13:04:16.634Z,10.40
2018-02-04T13:06:46.164Z,11.83
2018-02-04T13:09:16.234Z,11.30
2018-02-04T13:11:46.054Z,11.13
2018-02-04T13:14:15.328Z,12.53
2018-02-04T13:16:44.670Z,12.73
2018-02-04T13:19:14.198Z,11.17
2018-02-04T13:21:44.522Z,10.37
2018-02-04T13:24:14.599Z,13.60
2018-02-04T13:26:44.085Z,10.03
2018-02-04T13:29:13.373Z,11.67
2018-02-04T13:31:42.668Z,10.13
2018-02-04T13:34:12.068Z,9.80
2018-02-04T13:36:42.171Z,7.87
2018-02-04T13:39:12.023Z,9.47
2018-02-04T13:41:41.409Z,11.77
2018-02-04T13:44:10.939Z,8.17
2018-02-04T13:46:41.121Z,8.70
2018-02-04T13:49:11.291Z,6.70
2018-02-04T13:51:40.642Z,6.87
2018-02-04T13:54:11.310Z,7.27
2018-02-04T13:56:40.629Z,5.97
2018-02-04T13:59:10.045Z,7.23
2018-02-04T14:01:39.326Z,4.93
2018-02-04T14:04:08.847Z,6.70
2018-02-04T14:06:38.719Z,6.03
2018-02-04T14:09:08.301Z,6.80
2018-02-04T14:11:38.818Z,5.40
2018-02-04T14:14:08.294Z,6.47
2018-02-04T14:16:37.747Z,5.93
2018-02-04T14:19:07.388Z,6.23
2018-02-04T14:21:36.656Z,5.60
2018-02-04T14:24:06.688Z,4.77
2018-02-04T14:26:36.191Z,4.70
2018-02-04T14:29:06.233Z,5.10
2018-02-04T14:31:35.526Z,4.23
2018-02-04T14:34:04.807Z,4.80
2018-02-04T14:36:34.701Z,3.90
2018-02-04T14:39:04.118Z,6.00
2018-02-04T14:41:34.184Z,4.23
2018-02-04T14:44:04.062Z,5.23
2018-02-04T14:46:34.101Z,4.40
2018-02-04T14:49:03.364Z,6.17
2018-02-04T14:51:33.397Z,3.77
2018-02-04T14:54:03.432Z,3.03
2018-02-04T14:56:32.706Z,4.23
2018-02-04T14:59:02.745Z,4.70
2018-02-04T15:01:32.189Z,4.83
2018-02-04T15:04:01.623Z,6.17
2018-02-04T15:06:31.696Z,4.87
2018-02-04T15:09:00.964Z,5.33
2018-02-04T15:11:30.314Z,5.97
2018-02-04T15:14:00.637Z,4.23
2018-02-04T15:16:30.022Z,5.17
2018-02-04T15:18:59.331Z,5.33
2018-02-04T15:21:28.802Z,4.40
2018-02-04T15:23:58.216Z,5.97
2018-02-04T15:26:28.955Z,5.00
2018-02-04T15:28:58.218Z,6.37
2018-02-04T15:31:28.416Z,8.30
2018-02-04T15:33:57.794Z,6.80
2018-02-04T15:36:27.224Z,7.33
2018-02-04T15:38:56.562Z,7.07
2018-02-04T15:41:26.808Z,6.73
2018-02-04T15:43:56.090Z,5.37
2018-02-04T15:46:25.722Z,6.47
2018-02-04T15:48:55.074Z,10.50
2018-02-04T15:51:25.098Z,8.10
2018-02-04T15:53:55.128Z,8.23
2018-02-04T15:56:25.185Z,7.60
2018-02-04T15:58:54.632Z,8.60
2018-02-04T16:01:24.943Z,6.47
2018-02-04T16:03:54.226Z,8.57
2018-02-04T16:06:23.705Z,8.83
2018-02-04T16:08:53.125Z,7.97
2018-02-04T16:11:22.617Z,9.33
2018-02-04T16:13:51.878Z,7.60
2018-02-04T16:16:21.900Z,8.90
2018-02-04T16:18:51.930Z,8.63
2018-02-04T16:21:21.231Z,9.27
2018-02-04T16:23:51.501Z,12.03
2018-02-04T16:26:21.187Z,7.00
2018-02-04T16:28:50.614Z,9.60
2018-02-04T16:31:20.476Z,9.70
2018-02-04T16:33:50.546Z,9.53
2018-02-04T16:36:19.880Z,8.20
2018-02-04T16:38:50.061Z,7.43
2018-02-04T16:41:19.356Z,9.40
2018-02-04T16:43:48.724Z,8.00
2018-02-04T16:46:18.585Z,7.47
2018-02-04T16:48:47.849Z,7.20
2018-02-04T16:51:17.130Z,8.43
2018-02-04T16:53:47.125Z,8.60
2018-02-04T16:56:16.384Z,9.13
2018-02-04T16:58:45.798Z,9.13
2018-02-04T17:01:15.101Z,7.10
2018-02-04T17:03:44.428Z,7.87
2018-02-04T17:06:13.708Z,7.33
2018-02-04T17:08:42.981Z,10.17
2018-02-04T17:11:12.291Z,7.83
2018-02-04T17:13:41.583Z,8.17
2018-02-04T17:16:12.212Z,6.57
2018-02-04T17:18:41.536Z,7.63
2018-02-04T17:21:10.660Z,8.33
2018-02-04T17:23:39.972Z,8.50
2018-02-04T17:26:09.442Z,7.50
2018-02-04T17:28:39.086Z,8.70
2018-02-04T17:31:08.394Z,8.37
2018-02-04T17:33:38.907Z,10.33
2018-02-04T17:36:08.198Z,8.50
2018-02-04T17:38:38.536Z,8.77
2018-02-04T17:41:07.631Z,8.73
2018-02-04T17:43:37.522Z,7.30
2018-02-04T17:46:06.831Z,6.00
2018-02-04T17:48:36.671Z,7.30
2018-02-04T17:51:06.910Z,8.97
2018-02-04T17:53:36.937Z,7.17
2018-02-04T17:56:06.155Z,8.77
2018-02-04T17:58:36.358Z,7.87
2018-02-04T18:01:06.408Z,7.93
2018-02-04T18:03:36.004Z,8.83
2018-02-04T18:06:05.017Z,8.23
2018-02-04T18:08:34.569Z,7.90
2018-02-04T18:11:04.619Z,7.60
2018-02-04T18:13:33.460Z,8.93
2018-02-04T18:16:02.353Z,8.37
2018-02-04T18:18:32.318Z,8.37
2018-02-04T18:21:01.684Z,8.23
2018-02-04T18:23:31.850Z,9.20
2018-02-04T18:26:01.141Z,8.13
2018-02-04T18:28:30.542Z,6.77
2018-02-04T18:31:00.646Z,8.33
2018-02-04T18:33:30.014Z,7.50
2018-02-04T18:35:58.671Z,8.43
2018-02-04T18:38:27.729Z,7.53
2018-02-04T18:40:57.061Z,7.23
2018-02-04T18:43:26.490Z,9.07
2018-02-04T18:45:55.782Z,9.73
2018-02-04T18:48:25.072Z,9.13
2018-02-04T18:50:54.367Z,8.27
2018-02-04T18:53:23.658Z,7.87
2018-02-04T18:55:52.747Z,6.50
2018-02-04T18:58:22.065Z,9.03
2018-02-04T19:00:51.363Z,8.43
2018-02-04T19:03:20.648Z,9.33
2018-02-04T19:05:49.956Z,9.60
2018-02-04T19:08:19.263Z,8.47
2018-02-04T19:10:48.826Z,9.17
2018-02-04T19:13:18.839Z,9.83
2018-02-04T19:15:48.894Z,10.83
2018-02-04T19:18:18.151Z,9.33
2018-02-04T19:20:47.433Z,10.90
2018-02-04T19:23:16.967Z,11.33
2018-02-04T19:25:47.135Z,11.87
2018-02-04T19:28:16.528Z,11.33
2018-02-04T19:30:45.807Z,12.73
2018-02-04T19:33:15.857Z,10.27
2018-02-04T19:35:45.142Z,15.53
2018-02-04T19:38:14.614Z,14.27
2018-02-04T19:40:44.641Z,12.00
2018-02-04T19:43:14.681Z,14.60
2018-02-04T19:45:44.082Z,13.67
2018-02-04T19:48:14.285Z,13.70
2018-02-04T19:50:44.643Z,14.80
2018-02-04T19:53:14.145Z,14.30
2018-02-04T19:55:44.268Z,13.63
2018-02-04T19:58:13.481Z,14.30
2018-02-04T20:00:42.750Z,16.40
2018-02-04T20:03:12.276Z,15.37
2018-02-04T20:05:41.814Z,16.07
2018-02-04T20:08:11.442Z,16.90
2018-02-04T20:10:41.109Z,17.97
2018-02-04T20:13:11.316Z,13.40
2018-02-04T20:15:40.787Z,16.07
2018-02-04T20:18:11.069Z,11.30
2018-02-04T20:20:40.571Z,15.03
2018-02-04T20:23:09.978Z,15.03
2018-02-04T20:25:39.278Z,11.70
2018-02-04T20:28:08.651Z,11.27
2018-02-04T20:30:38.346Z,12.97
2018-02-04T20:33:22.722Z,14.50
2018-02-04T20:35:52.016Z,9.97
2018-02-04T20:38:21.319Z,12.17
2018-02-04T20:40:50.799Z,11.17
2018-02-04T20:43:21.050Z,13.97
2018-02-04T20:45:50.672Z,14.77
2018-02-04T20:48:19.975Z,13.60
2018-02-04T20:50:49.885Z,11.90
2018-02-04T20:53:19.233Z,15.13
2018-02-04T20:55:49.569Z,14.53
2018-02-04T20:58:18.969Z,15.00
2018-02-04T21:00:49.009Z,16.10
2018-02-04T21:03:18.472Z,16.03
2018-02-04T21:05:47.767Z,16.63
2018-02-04T21:08:17.033Z,19.33
2018-02-04T21:10:46.359Z,16.17
2018-02-04T21:13:15.940Z,17.70
2018-02-04T21:15:45.800Z,20.43
2018-02-04T21:18:15.862Z,17.47
2018-02-04T21:20:45.297Z,15.97
2018-02-04T21:23:14.144Z,15.77
2018-02-04T21:25:42.991Z,14.70
2018-02-04T21:28:11.771Z,12.37
2018-02-04T21:30:41.109Z,16.10
2018-02-04T21:33:11.225Z,12.93
2018-02-04T21:35:41.308Z,13.40
2018-02-04T21:38:10.597Z,17.67
2018-02-04T21:40:40.026Z,13.07
2018-02-04T21:43:09.805Z,15.03
2018-02-04T21:45:39.070Z,13.80
2018-02-04T21:48:09.116Z,10.87
2018-02-04T21:50:38.855Z,12.57
2018-02-04T21:53:08.378Z,13.70
2018-02-04T21:55:38.519Z,12.97
2018-02-04T21:58:08.760Z,14.87
2018-02-04T22:00:38.121Z,13.73
2018-02-04T22:03:07.915Z,13.80
2018-02-04T22:05:37.875Z,13.50
2018-02-04T22:08:08.413Z,10.50
2018-02-04T22:10:38.835Z,14.00
2018-02-04T22:13:09.076Z,11.30
2018-02-04T22:15:38.503Z,13.43
2018-02-04T22:18:07.868Z,12.57
2018-02-04T22:20:37.540Z,13.60
2018-02-04T22:23:07.010Z,13.47
2018-02-04T22:25:36.502Z,10.23
2018-02-04T22:28:06.124Z,12.13
2018-02-04T22:30:35.631Z,15.30
2018-02-04T22:33:04.271Z,13.43
2018-02-04T22:35:33.688Z,13.63
2018-02-04T22:38:03.228Z,12.67
2018-02-04T22:40:32.704Z,13.23
2018-02-04T22:43:01.351Z,12.90
2018-02-04T22:45:30.645Z,14.97
2018-02-04T22:47:59.938Z,14.80
2018-02-04T22:50:29.008Z,14.20
2018-02-04T22:52:58.374Z,13.13
2018-02-04T22:55:28.522Z,16.23
2018-02-04T22:57:57.754Z,11.90
2018-02-04T23:00:27.312Z,17.27
2018-02-04T23:02:56.689Z,15.13
2018-02-04T23:05:26.902Z,15.33
2018-02-04T23:07:56.681Z,13.13
2018-02-04T23:10:26.004Z,13.63
2018-02-04T23:12:55.589Z,14.97
2018-02-04T23:15:25.073Z,15.80
2018-02-04T23:17:54.424Z,11.67
2018-02-04T23:20:23.572Z,16.77
2018-02-04T23:22:53.823Z,13.97
2018-02-04T23:25:23.406Z,13.10
2018-02-04T23:27:52.733Z,14.17
2018-02-04T23:30:22.038Z,13.83
2018-02-04T23:32:51.343Z,17.40
2018-02-04T23:35:20.404Z,13.00
2018-02-04T23:37:49.792Z,16.10
2018-02-04T23:40:19.820Z,15.63
2018-02-04T23:42:49.906Z,16.07
2018-02-04T23:45:19.992Z,16.33
2018-02-04T23:47:49.280Z,16.97
2018-02-04T23:50:18.622Z,14.37
2018-02-04T23:52:47.898Z,13.30
2018-02-04T23:55:17.265Z,13.73
2018-02-04T23:57:46.551Z,14.80
